createdAt,value
2019-01-30T00:02:24.779Z,96.30
2019-01-30T00:04:56.146Z,96.30
2019-01-30T00:07:27.518Z,96.00
2019-01-30T00:09:58.899Z,96.20
2019-01-30T00:12:30.328Z,96.00
2019-01-30T00:15:01.766Z,96.00
2019-01-30T00:17:33.647Z,95.70
2019-01-30T00:20:09.331Z,95.40
2019-01-30T00:22:40.800Z,95.70
2019-01-30T00:25:15.845Z,95.90
2019-01-30T00:27:47.234Z,95.30
2019-01-30T00:30:25.517Z,95.40
2019-01-30T00:32:57.145Z,95.60
2019-01-30T00:35:28.905Z,96.00
2019-01-30T00:38:00.279Z,95.80
2019-01-30T00:40:31.802Z,95.60
2019-01-30T00:43:03.200Z,95.50
2019-01-30T00:45:34.693Z,95.60
2019-01-30T00:48:06.478Z,96.00
2019-01-30T00:50:37.986Z,96.00
2019-01-30T00:53:09.552Z,95.80
2019-01-30T00:55:40.932Z,96.00
2019-01-30T00:58:12.388Z,95.80
2019-01-30T01:00:43.824Z,95.20
2019-01-30T01:03:15.502Z,95.20
2019-01-30T01:05:47.063Z,95.50
2019-01-30T01:08:18.494Z,95.60
2019-01-30T01:10:49.941Z,95.70
2019-01-30T01:13:21.495Z,95.70
2019-01-30T01:15:52.901Z,95.40
2019-01-30T01:18:24.362Z,95.30
2019-01-30T01:20:55.816Z,95.40
2019-01-30T01:23:27.325Z,95.60
2019-01-30T01:25:58.754Z,95.70
2019-01-30T01:28:30.074Z,95.70
2019-01-30T01:31:01.460Z,95.80
2019-01-30T01:33:32.851Z,95.70
2019-01-30T01:36:04.348Z,95.40
2019-01-30T01:38:35.791Z,95.60
2019-01-30T01:41:07.212Z,95.50
2019-01-30T01:43:38.662Z,95.50
2019-01-30T01:46:10.087Z,95.60
2019-01-30T01:48:41.423Z,95.70
2019-01-30T01:51:12.793Z,95.70
2019-01-30T01:53:44.340Z,95.70
2019-01-30T01:56:15.719Z,95.90
2019-01-30T01:58:47.152Z,95.80
2019-01-30T02:01:18.576Z,95.40
2019-01-30T02:03:51.071Z,95.40
2019-01-30T02:06:22.552Z,95.40
2019-01-30T02:08:53.989Z,95.40
2019-01-30T02:11:25.419Z,95.40
2019-01-30T02:13:56.900Z,95.40
2019-01-30T02:16:28.338Z,95.60
2019-01-30T02:18:59.684Z,95.40
2019-01-30T02:21:31.035Z,95.20
2019-01-30T02:24:02.437Z,95.40
2019-01-30T02:26:33.901Z,95.40
2019-01-30T02:29:05.477Z,95.10
2019-01-30T02:31:36.873Z,95.50
2019-01-30T02:34:08.238Z,95.40
2019-01-30T02:36:41.275Z,95.20
2019-01-30T02:39:12.622Z,95.20
2019-01-30T02:41:44.028Z,95.30
2019-01-30T02:44:15.298Z,95.30
2019-01-30T02:46:46.738Z,95.20
2019-01-30T02:49:18.036Z,95.10
2019-01-30T02:51:49.408Z,95.20
2019-01-30T02:54:20.808Z,94.90
2019-01-30T02:56:52.090Z,94.70
2019-01-30T02:59:23.502Z,94.80
2019-01-30T03:01:56.544Z,94.70
2019-01-30T03:04:28.026Z,94.70
2019-01-30T03:06:59.540Z,94.60
2019-01-30T03:09:30.923Z,94.50
2019-01-30T03:12:02.349Z,94.70
2019-01-30T03:14:33.731Z,94.60
2019-01-30T03:17:05.193Z,94.60
2019-01-30T03:19:36.484Z,94.40
2019-01-30T03:22:07.903Z,94.30
2019-01-30T03:24:39.176Z,94.10
2019-01-30T03:27:10.709Z,94.30
2019-01-30T03:29:42.031Z,94.50
2019-01-30T03:32:13.523Z,94.40
2019-01-30T03:34:44.841Z,95.00
2019-01-30T03:37:16.114Z,94.80
2019-01-30T03:39:47.351Z,94.90
2019-01-30T03:42:21.936Z,95.00
2019-01-30T03:44:53.302Z,94.80
2019-01-30T03:47:24.543Z,94.90
2019-01-30T03:49:55.786Z,95.20
2019-01-30T03:52:27.107Z,95.10
2019-01-30T03:54:58.412Z,95.00
2019-01-30T03:57:29.718Z,94.70
2019-01-30T04:00:01.013Z,94.90
2019-01-30T04:02:32.330Z,95.30
2019-01-30T04:05:03.848Z,95.50
2019-01-30T04:07:35.197Z,95.40
2019-01-30T04:10:14.052Z,95.20
2019-01-30T04:12:45.422Z,95.20
2019-01-30T04:15:16.871Z,95.70
2019-01-30T04:17:48.404Z,95.70
2019-01-30T04:20:21.548Z,95.60
2019-01-30T04:22:53.001Z,95.50
2019-01-30T04:25:24.308Z,95.20
2019-01-30T04:27:55.704Z,95.10
2019-01-30T04:30:27.269Z,95.10
2019-01-30T04:32:58.943Z,94.80
2019-01-30T04:35:30.458Z,94.90
2019-01-30T04:38:04.402Z,95.00
2019-01-30T04:40:35.891Z,94.60
2019-01-30T04:43:07.525Z,94.40
2019-01-30T04:45:38.975Z,94.60
2019-01-30T04:48:10.382Z,94.50
2019-01-30T04:50:41.797Z,94.70
2019-01-30T04:53:13.469Z,94.80
2019-01-30T04:55:45.013Z,94.50
2019-01-30T04:58:16.562Z,94.50
2019-01-30T05:00:47.979Z,94.90
2019-01-30T05:03:19.399Z,94.80
2019-01-30T05:05:56.975Z,95.10
2019-01-30T05:08:28.307Z,95.50
2019-01-30T05:10:59.667Z,95.80
2019-01-30T05:13:31.011Z,96.30
2019-01-30T05:16:02.556Z,96.40
2019-01-30T05:18:33.925Z,96.60
2019-01-30T05:21:05.535Z,96.40
2019-01-30T05:23:44.370Z,96.40
2019-01-30T05:26:15.838Z,96.70
2019-01-30T05:28:47.131Z,97.00
2019-01-30T05:31:18.561Z,97.10
2019-01-30T05:33:49.931Z,97.20
2019-01-30T05:36:21.518Z,97.50
2019-01-30T05:38:54.498Z,97.70
2019-01-30T05:41:25.876Z,97.80
2019-01-30T05:43:57.195Z,97.80
2019-01-30T05:46:28.735Z,98.10
2019-01-30T05:49:00.080Z,98.00
2019-01-30T05:51:31.497Z,98.00
2019-01-30T05:54:02.766Z,98.10
2019-01-30T05:56:40.288Z,98.20
2019-01-30T05:59:11.662Z,98.40
2019-01-30T06:01:43.191Z,98.50
2019-01-30T06:04:14.542Z,98.60
2019-01-30T06:06:46.228Z,98.50
2019-01-30T06:09:19.238Z,98.70
2019-01-30T06:11:50.667Z,98.80
2019-01-30T06:14:21.895Z,98.80
2019-01-30T06:16:53.271Z,98.80
2019-01-30T06:19:24.593Z,98.80
2019-01-30T06:21:55.919Z,98.80
2019-01-30T06:24:27.167Z,98.80
2019-01-30T06:27:00.317Z,98.80
2019-01-30T06:29:31.565Z,98.80
2019-01-30T06:32:02.867Z,98.80
2019-01-30T06:34:34.181Z,98.90
2019-01-30T06:37:05.609Z,98.90
2019-01-30T06:39:36.922Z,98.90
2019-01-30T06:42:08.357Z,98.70
2019-01-30T06:44:39.596Z,98.70
2019-01-30T06:47:11.454Z,98.70
2019-01-30T06:49:42.699Z,98.60
2019-01-30T06:52:14.334Z,98.50
2019-01-30T06:54:45.576Z,98.50
2019-01-30T06:57:17.069Z,98.40
2019-01-30T06:59:48.314Z,98.50
2019-01-30T07:02:19.698Z,98.40
2019-01-30T07:04:50.997Z,98.40
2019-01-30T07:07:22.391Z,98.40
2019-01-30T07:09:53.705Z,98.40
2019-01-30T07:12:25.173Z,98.40
2019-01-30T07:14:56.499Z,98.50
2019-01-30T07:17:27.787Z,98.40
2019-01-30T07:19:59.113Z,98.30
2019-01-30T07:22:30.481Z,98.40
2019-01-30T07:25:01.741Z,98.30
2019-01-30T07:27:33.181Z,98.20
2019-01-30T07:30:19.375Z,98.30
2019-01-30T07:32:50.817Z,98.20
2019-01-30T07:35:22.240Z,98.10
2019-01-30T07:37:54.269Z,97.70
2019-01-30T07:40:25.557Z,97.60
2019-01-30T07:42:56.913Z,97.80
2019-01-30T07:45:29.171Z,97.80
2019-01-30T07:48:06.637Z,97.80
2019-01-30T07:50:37.884Z,97.80
2019-01-30T07:53:09.173Z,97.90
2019-01-30T07:55:40.477Z,97.90
2019-01-30T07:58:11.846Z,97.90
2019-01-30T08:00:43.243Z,97.80
2019-01-30T08:03:14.533Z,97.80
2019-01-30T08:05:45.842Z,97.80
2019-01-30T08:08:17.132Z,97.70
2019-01-30T08:10:48.382Z,97.50
2019-01-30T08:13:19.670Z,97.50
2019-01-30T08:15:50.916Z,97.40
2019-01-30T08:18:22.284Z,97.60
2019-01-30T08:20:53.603Z,97.60
2019-01-30T08:23:25.169Z,97.30
2019-01-30T08:25:56.507Z,96.80
2019-01-30T08:28:28.073Z,97.00
2019-01-30T08:30:59.610Z,97.00
2019-01-30T08:33:31.000Z,96.80
2019-01-30T08:36:02.380Z,96.70
2019-01-30T08:38:33.745Z,96.40
2019-01-30T08:41:05.183Z,96.30
2019-01-30T08:43:36.521Z,95.80
2019-01-30T08:46:08.151Z,95.90
2019-01-30T08:48:39.747Z,96.10
2019-01-30T08:51:11.786Z,96.10
2019-01-30T08:53:43.255Z,96.00
2019-01-30T08:56:14.699Z,95.80
2019-01-30T08:58:46.473Z,95.80
2019-01-30T09:01:17.756Z,95.80
2019-01-30T09:03:49.192Z,95.80
2019-01-30T09:06:20.651Z,95.70
2019-01-30T09:08:51.933Z,95.60
2019-01-30T09:11:23.532Z,95.70
2019-01-30T09:13:54.848Z,95.60
2019-01-30T09:16:26.263Z,95.60
2019-01-30T09:18:57.577Z,95.60
2019-01-30T09:21:28.891Z,95.60
2019-01-30T09:24:00.480Z,95.10
2019-01-30T09:26:32.048Z,95.40
2019-01-30T09:29:03.724Z,95.00
2019-01-30T09:31:35.324Z,94.90
2019-01-30T09:34:07.392Z,95.20
2019-01-30T09:36:38.872Z,95.20
2019-01-30T09:39:10.508Z,94.80
2019-01-30T09:41:41.952Z,94.90
2019-01-30T09:44:16.763Z,95.00
2019-01-30T09:46:48.256Z,94.80
2019-01-30T09:49:21.857Z,94.80
2019-01-30T09:51:59.275Z,94.80
2019-01-30T09:54:39.312Z,94.80
2019-01-30T10:00:50.866Z,95.00
2019-01-30T10:42:35.152Z,95.70
2019-01-30T10:48:43.641Z,94.90
2019-01-30T10:51:47.658Z,95.30
2019-01-30T11:05:02.811Z,95.80
2019-01-30T11:10:38.826Z,96.00
2019-01-30T11:13:08.323Z,95.90
2019-01-30T11:16:01.548Z,96.00
2019-01-30T11:18:43.803Z,96.00
2019-01-30T11:21:32.120Z,96.00
2019-01-30T11:24:06.808Z,95.90
2019-01-30T11:26:42.875Z,96.10
2019-01-30T11:29:25.891Z,95.90
2019-01-30T11:31:59.647Z,96.30
2019-01-30T11:35:04.102Z,96.20
2019-01-30T11:37:43.522Z,96.10
2019-01-30T11:40:40.976Z,96.30
2019-01-30T11:43:21.375Z,96.30
2019-01-30T11:45:53.100Z,96.60
2019-01-30T11:48:24.741Z,96.70
2019-01-30T11:50:56.608Z,96.70
2019-01-30T11:53:28.150Z,96.90
2019-01-30T11:56:01.014Z,96.90
2019-01-30T11:58:34.067Z,96.40
2019-01-30T12:01:12.595Z,96.60
2019-01-30T12:04:17.997Z,96.90
2019-01-30T12:07:03.408Z,97.10
2019-01-30T12:12:47.834Z,97.20
2019-01-30T12:15:32.580Z,97.30
2019-01-30T12:18:05.882Z,97.40
2019-01-30T12:20:48.060Z,97.50
2019-01-30T12:23:20.266Z,97.50
2019-01-30T12:25:53.663Z,97.70
2019-01-30T12:28:25.610Z,97.80
2019-01-30T12:31:00.337Z,97.90
2019-01-30T12:33:36.767Z,98.00
2019-01-30T12:36:08.470Z,98.00
2019-01-30T12:38:46.116Z,98.20
2019-01-30T12:41:25.366Z,98.60
2019-01-30T12:44:08.137Z,98.20
2019-01-30T12:46:47.335Z,98.30
2019-01-30T12:49:26.952Z,98.20
2019-01-30T12:51:58.687Z,98.10
2019-01-30T12:54:33.986Z,98.20
2019-01-30T12:57:09.669Z,98.10
2019-01-30T13:03:29.603Z,98.10
2019-01-30T13:06:02.845Z,98.30
2019-01-30T13:08:34.544Z,98.00
2019-01-30T13:11:06.098Z,97.90
2019-01-30T13:13:41.042Z,97.80
2019-01-30T13:16:17.031Z,97.80
2019-01-30T13:18:48.417Z,97.60
2019-01-30T13:21:19.928Z,97.60
2019-01-30T13:23:53.070Z,97.30
2019-01-30T13:26:28.794Z,97.30
2019-01-30T13:29:00.444Z,97.10
2019-01-30T13:31:31.995Z,96.70
2019-01-30T13:34:04.619Z,96.70
2019-01-30T13:36:36.050Z,96.20
2019-01-30T13:39:09.061Z,95.90
2019-01-30T13:41:40.617Z,95.90
2019-01-30T13:44:12.214Z,95.40
2019-01-30T13:46:45.569Z,95.90
2019-01-30T13:49:20.274Z,95.60
2019-01-30T13:51:51.776Z,95.60
2019-01-30T13:54:23.458Z,95.20
2019-01-30T13:56:55.123Z,95.00
2019-01-30T13:59:26.595Z,94.50
2019-01-30T14:01:57.877Z,94.40
2019-01-30T14:04:29.343Z,93.70
2019-01-30T14:07:02.227Z,93.90
2019-01-30T14:09:33.870Z,94.10
2019-01-30T14:12:05.481Z,94.60
2019-01-30T14:14:37.131Z,94.90
2019-01-30T14:17:10.230Z,94.60
2019-01-30T14:19:41.744Z,94.80
2019-01-30T14:22:13.088Z,94.90
2019-01-30T14:24:45.292Z,94.20
2019-01-30T14:27:16.894Z,94.20
2019-01-30T14:29:57.944Z,94.30
2019-01-30T14:32:23.060Z,94.10
2019-01-30T14:34:58.172Z,93.90
2019-01-30T14:37:31.116Z,94.20
2019-01-30T14:40:02.634Z,94.30
2019-01-30T14:42:34.193Z,94.30
2019-01-30T14:45:10.744Z,94.40
2019-01-30T14:47:46.164Z,94.50
2019-01-30T14:50:23.597Z,94.70
2019-01-30T14:52:55.380Z,94.80
2019-01-30T14:55:27.163Z,95.30
2019-01-30T14:57:58.739Z,95.60
2019-01-30T15:00:33.266Z,95.80
2019-01-30T15:03:04.997Z,95.50
2019-01-30T15:05:36.828Z,95.50
2019-01-30T15:08:08.622Z,95.50
2019-01-30T15:10:40.102Z,95.10
2019-01-30T15:13:11.610Z,95.00
2019-01-30T15:15:44.286Z,94.10
2019-01-30T15:18:17.681Z,93.60
2019-01-30T15:20:50.741Z,93.20
2019-01-30T15:23:23.721Z,92.90
2019-01-30T15:26:03.655Z,93.10
2019-01-30T15:28:35.443Z,93.00
2019-01-30T15:31:07.055Z,93.20
2019-01-30T15:33:38.958Z,93.20
2019-01-30T15:36:12.771Z,93.00
2019-01-30T15:38:47.090Z,93.10
2019-01-30T15:41:18.858Z,93.50
2019-01-30T15:43:56.920Z,93.00
2019-01-30T15:46:32.855Z,92.90
2019-01-30T15:49:07.364Z,93.10
2019-01-30T15:51:44.736Z,93.00
2019-01-30T15:54:18.811Z,93.20
2019-01-30T15:56:49.418Z,94.00
2019-01-30T15:59:21.016Z,94.50
2019-01-30T16:01:56.066Z,95.90
2019-01-30T16:04:36.266Z,96.50
2019-01-30T16:07:05.175Z,96.90
2019-01-30T16:09:36.531Z,97.40
2019-01-30T16:12:08.046Z,97.80
2019-01-30T16:14:39.453Z,98.00
2019-01-30T16:17:10.923Z,98.10
2019-01-30T16:19:49.384Z,98.20
2019-01-30T16:22:22.214Z,98.30
2019-01-30T16:24:55.520Z,98.30
2019-01-30T16:27:28.700Z,98.30
2019-01-30T16:30:00.323Z,98.40
2019-01-30T16:32:34.156Z,98.50
2019-01-30T16:35:15.963Z,98.60
2019-01-30T16:37:47.599Z,98.60
2019-01-30T16:40:19.514Z,98.60
2019-01-30T16:42:55.264Z,98.70
2019-01-30T16:45:33.828Z,98.70
2019-01-30T16:48:08.695Z,98.70
2019-01-30T16:50:40.281Z,98.60
2019-01-30T16:53:13.271Z,98.60
2019-01-30T16:55:44.627Z,98.60
2019-01-30T16:58:16.285Z,98.50
2019-01-30T17:00:47.763Z,98.30
2019-01-30T17:03:20.955Z,98.40
2019-01-30T17:06:06.738Z,98.40
2019-01-30T17:08:28.939Z,98.40
2019-01-30T17:11:00.529Z,98.40
2019-01-30T17:13:32.302Z,98.40
2019-01-30T17:16:03.819Z,98.40
2019-01-30T17:18:43.837Z,98.30
2019-01-30T17:21:17.011Z,97.80
2019-01-30T17:23:52.622Z,97.60
2019-01-30T17:26:25.469Z,97.60
2019-01-30T17:28:57.601Z,96.80
2019-01-30T17:31:29.282Z,96.50
2019-01-30T17:34:10.276Z,96.30
2019-01-30T17:36:43.433Z,96.00
2019-01-30T17:39:15.021Z,95.80
2019-01-30T17:41:49.387Z,95.60
2019-01-30T17:44:22.844Z,95.00
2019-01-30T17:50:10.331Z,94.20
2019-01-30T17:52:41.813Z,94.10
2019-01-30T17:55:13.797Z,93.50
2019-01-30T17:57:46.572Z,93.40
2019-01-30T18:00:27.264Z,93.00
2019-01-30T18:03:01.231Z,92.90
2019-01-30T18:05:43.755Z,92.40
2019-01-30T18:08:15.093Z,92.80
2019-01-30T18:10:46.624Z,93.20
2019-01-30T18:13:18.037Z,92.80
2019-01-30T18:15:52.664Z,92.50
2019-01-30T18:18:24.081Z,92.40
2019-01-30T18:20:55.703Z,92.70
2019-01-30T18:23:27.215Z,92.60
2019-01-30T18:26:01.230Z,92.80
2019-01-30T18:28:31.865Z,93.20
2019-01-30T18:31:02.487Z,93.10
2019-01-30T18:33:34.366Z,93.10
2019-01-30T18:36:06.283Z,93.20
2019-01-30T18:38:38.022Z,93.20
2019-01-30T18:41:12.594Z,93.20
2019-01-30T18:43:45.606Z,93.20
2019-01-30T18:46:16.975Z,93.10
2019-01-30T18:48:48.563Z,93.00
2019-01-30T18:51:19.911Z,92.90
2019-01-30T18:53:54.257Z,93.00
2019-01-30T18:56:27.395Z,93.10
2019-01-30T18:58:58.893Z,93.10
2019-01-30T19:01:30.470Z,93.20
2019-01-30T19:04:01.989Z,93.10
2019-01-30T19:06:33.442Z,92.60
2019-01-30T19:09:08.159Z,92.80
2019-01-30T19:11:39.793Z,92.70
2019-01-30T19:14:14.622Z,92.40
2019-01-30T19:16:46.194Z,92.30
2019-01-30T19:19:17.652Z,92.60
2019-01-30T19:21:49.084Z,92.40
2019-01-30T19:24:20.567Z,92.50
2019-01-30T19:26:52.108Z,92.20
2019-01-30T19:29:23.923Z,92.20
2019-01-30T19:32:00.389Z,92.50
2019-01-30T19:34:31.917Z,92.30
2019-01-30T19:37:22.754Z,92.30
2019-01-30T19:39:55.442Z,92.30
2019-01-30T19:42:28.411Z,92.30
2019-01-30T19:45:59.755Z,92.40
2019-01-30T19:51:01.655Z,92.30
2019-01-30T19:53:33.060Z,92.30
2019-01-30T19:56:05.201Z,92.30
2019-01-30T19:58:36.917Z,92.20
2019-01-30T20:01:08.414Z,92.30
2019-01-30T20:03:42.196Z,92.40
2019-01-30T20:06:14.297Z,92.40
2019-01-30T20:08:47.168Z,92.30
2019-01-30T20:11:19.560Z,92.40
2019-01-30T20:13:52.699Z,92.70
2019-01-30T20:16:24.186Z,92.60
2019-01-30T20:18:57.639Z,92.80
2019-01-30T20:21:29.254Z,92.70
2019-01-30T20:24:00.770Z,93.00
2019-01-30T20:26:32.265Z,93.10
2019-01-30T20:29:03.763Z,93.40
2019-01-30T20:31:35.171Z,93.50
2019-01-30T20:34:10.459Z,93.50
2019-01-30T20:36:41.462Z,93.90
2019-01-30T20:39:12.946Z,94.00
2019-01-30T20:41:44.568Z,94.10
2019-01-30T20:44:16.239Z,94.10
2019-01-30T20:46:47.622Z,94.30
2019-01-30T20:49:19.280Z,94.30
2019-01-30T20:51:50.794Z,94.50
2019-01-30T20:54:22.291Z,94.60
2019-01-30T20:56:53.641Z,94.70
2019-01-30T20:59:25.076Z,94.80
2019-01-30T21:01:56.567Z,94.90
2019-01-30T21:04:27.963Z,95.00
2019-01-30T21:06:59.303Z,95.00
2019-01-30T21:09:30.757Z,95.10
2019-01-30T21:12:02.224Z,95.30
2019-01-30T21:14:33.489Z,95.50
2019-01-30T21:17:04.963Z,95.60
2019-01-30T21:19:37.626Z,95.70
2019-01-30T21:22:09.008Z,95.70
2019-01-30T21:24:40.426Z,95.70
2019-01-30T21:27:12.977Z,95.70
2019-01-30T21:29:44.495Z,95.80
2019-01-30T21:32:15.927Z,95.90
2019-01-30T21:34:47.322Z,95.90
2019-01-30T21:37:20.521Z,96.00
2019-01-30T21:39:51.739Z,96.10
2019-01-30T21:42:23.372Z,96.10
2019-01-30T21:44:54.801Z,96.10
2019-01-30T21:47:26.289Z,96.10
2019-01-30T21:49:57.726Z,96.00
2019-01-30T21:52:30.272Z,96.00
2019-01-30T21:55:02.843Z,95.90
2019-01-30T21:57:34.599Z,96.00
2019-01-30T22:00:13.662Z,95.90
2019-01-30T22:02:45.170Z,95.90
2019-01-30T22:05:17.331Z,95.90
2019-01-30T22:08:00.542Z,96.10
2019-01-30T22:10:29.057Z,96.10
2019-01-30T22:13:00.517Z,96.00
2019-01-30T22:15:31.953Z,96.00
2019-01-30T22:18:03.455Z,96.10
2019-01-30T22:20:35.898Z,96.10
2019-01-30T22:23:07.380Z,96.10
2019-01-30T22:25:38.756Z,96.10
2019-01-30T22:28:10.269Z,96.10
2019-01-30T22:30:41.761Z,96.20
2019-01-30T22:33:13.292Z,96.10
2019-01-30T22:35:44.871Z,96.10
2019-01-30T22:38:17.338Z,96.00
2019-01-30T22:40:48.775Z,96.00
2019-01-30T22:43:20.255Z,96.00
2019-01-30T22:45:52.967Z,95.90
2019-01-30T22:48:24.414Z,95.90
2019-01-30T22:50:55.842Z,95.90
2019-01-30T22:53:27.295Z,95.80
2019-01-30T22:55:58.692Z,95.90
2019-01-30T22:58:30.120Z,96.00
2019-01-30T23:01:12.099Z,96.00
2019-01-30T23:04:03.341Z,96.00
2019-01-30T23:06:39.589Z,95.90
2019-01-30T23:09:32.193Z,96.10
2019-01-30T23:12:41.701Z,96.20
2019-01-30T23:15:46.419Z,96.30
2019-01-30T23:18:59.150Z,96.20
2019-01-30T23:21:44.061Z,96.00
2019-01-30T23:24:38.153Z,95.90
2019-01-30T23:27:17.134Z,95.70
2019-01-30T23:30:21.380Z,96.10
2019-01-30T23:33:28.841Z,96.10
2019-01-30T23:36:13.871Z,96.40
2019-01-30T23:39:17.361Z,96.80
2019-01-30T23:42:11.710Z,96.30
2019-01-30T23:44:56.341Z,96.40
2019-01-30T23:47:42.196Z,96.50
2019-01-30T23:50:20.830Z,96.60
2019-01-30T23:53:18.041Z,96.70
2019-01-30T23:56:03.111Z,96.30
2019-01-30T23:58:47.652Z,96.20
